MSC Candice — 3ENC5 — position and weather

sailwx.info

Track history (hours):
 
Tides and Currents Weather Stations Pressure Air Temp Water Temp Dewpoint Dewpoint Depression Visibility Wind Speed Wind Dir Waves Ship Positions

MSC Candice

Last reported at 2018-Feb-21 21:17 UTC. Time now 2018-Feb-26 01:27 UTC.
Position N 31°52' W 080°34'.

Length 337 m; draft 12.1 m.

Type: Ship (hazmat cat A). MMSI: 352871000.

Date/timePositionNaut miles runAvg speedWind from/ knotsBaromVisibWave heightAir tempDewpointWater temp
2018-Feb-21 21:17N 31°52' W 080°34'3 9.5
2018-Feb-21 21:00N 31°54' W 080°36'5 9.7
2018-Feb-21 20:30N 31°57' W 080°40'5 9.6
2018-Feb-21 20:00N 31°59' W 080°46'713.5
2018-Feb-21 19:29N 32°02' W 080°53'611.8
2018-Feb-21 19:00N 32°05' W 080°59'4 8.0
2018-Feb-21 18:30N 32°05' W 081°04'2 3.6
2018-Feb-21 18:00N 32°05' W 081°06'2 3.6
2018-Feb-21 17:30N 32°06' W 081°07'2 3.8
2018-Feb-21 17:00N 32°08' W 081°08'1 1.1
2018-Feb-21 16:29N 32°08' W 081°08'0 0.0
2018-Feb-21 15:59N 32°08' W 081°08'0 0.0
2018-Feb-21 15:29N 32°08' W 081°08'0 0.0
2018-Feb-21 14:59N 32°08' W 081°08'0 0.0
2018-Feb-21 14:29N 32°08' W 081°08'0 0.0
2018-Feb-21 13:41N 32°08' W 081°08'0 0.0
2018-Feb-21 13:29N 32°08' W 081°08'0 0.0
2018-Feb-21 12:59N 32°08' W 081°08'0 0.0
2018-Feb-21 12:23N 32°08' W 081°08'0 0.0
2018-Feb-21 11:59N 32°08' W 081°08'0 0.0
2018-Feb-21 11:17N 32°08' W 081°08'0 0.0
2018-Feb-21 10:53N 32°08' W 081°08'0 0.0
2018-Feb-21 10:17N 32°08' W 081°08'0 0.0
2018-Feb-21 09:59N 32°08' W 081°08'0 0.0
2018-Feb-21 09:29N 32°08' W 081°08'0 0.0
2018-Feb-21 08:59N 32°08' W 081°08'0 0.0
2018-Feb-21 08:29N 32°08' W 081°08'0 0.0
2018-Feb-21 07:59N 32°08' W 081°08'0 0.0
2018-Feb-21 07:29N 32°08' W 081°08'0 0.0
2018-Feb-21 06:59N 32°08' W 081°08'0 0.0
2018-Feb-21 06:29N 32°08' W 081°08'0 0.0
2018-Feb-21 05:58N 32°08' W 081°08'0 0.0
2018-Feb-21 05:17N 32°08' W 081°08'0 0.0
2018-Feb-21 04:52N 32°08' W 081°08'0 0.0
2018-Feb-21 04:28N 32°08' W 081°08'0 0.0
2018-Feb-21 03:59N 32°08' W 081°08'0 0.0
2018-Feb-21 03:05N 32°08' W 081°08'0 0.0
2018-Feb-21 02:53N 32°08' W 081°08'0 0.0
2018-Feb-21 02:29N 32°08' W 081°08'0 0.0
2018-Feb-21 01:59N 32°08' W 081°08'0 0.0
2018-Feb-21 01:17N 32°08' W 081°08'0 0.0
2018-Feb-21 00:59N 32°08' W 081°08'0 0.0
2018-Feb-21 00:29N 32°08' W 081°08'0 0.0
2018-Feb-20 23:34N 32°08' W 081°08'0 0.0
2018-Feb-20 23:30N 32°08' W 081°08'0 0.8
2018-Feb-20 23:00N 32°07' W 081°08'2 4.6
2018-Feb-20 22:30N 32°05' W 081°06'2 5.0
2018-Feb-20 22:00N 32°05' W 081°03'3 6.8
2018-Feb-20 21:30N 32°05' W 080°59'5 9.3
2018-Feb-20 21:00N 32°02' W 080°55'5 9.0
2018-Feb-20 20:30N 32°02' W 080°50'713.7
2018-Feb-20 20:00N 31°58' W 080°43'4 8.8
2018-Feb-20 19:30N 31°56' W 080°38'3 6.4
2018-Feb-20 19:00N 31°56' W 080°35'4 7.5
2018-Feb-20 18:30N 31°57' W 080°30'0 0.2
2018-Feb-20 17:39N 31°58' W 080°30'0 0.1
2018-Feb-20 17:27N 31°58' W 080°30'0 0.1
2018-Feb-20 16:51N 31°58' W 080°30'0 0.0
2018-Feb-20 16:21N 31°58' W 080°30'0 0.0
2018-Feb-20 15:51N 31°58' W 080°30'0 0.0
2018-Feb-20 15:21N 31°58' W 080°30'0 0.0
2018-Feb-20 14:57N 31°58' W 080°30'0 0.0
2018-Feb-20 14:27N 31°58' W 080°30'0 0.0
2018-Feb-20 10:57N 31°57' W 080°30'0 0.0
2018-Feb-20 10:27N 31°57' W 080°30'0 0.1
2018-Feb-20 08:51N 31°58' W 080°30'0 0.2
2018-Feb-20 08:27N 31°58' W 080°30'0 0.1
2018-Feb-20 07:57N 31°58' W 080°30'0 0.0
2018-Feb-20 07:27N 31°57' W 080°30'0 0.0
2018-Feb-20 06:57N 31°58' W 080°30'0 0.1
2018-Feb-20 06:27N 31°58' W 080°30'0 0.1
2018-Feb-20 05:45N 31°58' W 080°30'0 0.1
2018-Feb-20 04:09N 31°58' W 080°30'0 0.1
2018-Feb-20 03:57N 31°58' W 080°30'0 0.0
2018-Feb-20 03:21N 31°58' W 080°30'0 0.0
2018-Feb-20 02:57N 31°58' W 080°30'0 0.0
2018-Feb-20 02:27N 31°58' W 080°30'0 0.0
2018-Feb-20 01:57N 31°58' W 080°30'0 0.0
2018-Feb-20 00:21N 31°57' W 080°30'0 0.0
2018-Feb-19 23:57N 31°57' W 080°30'0 0.0
2018-Feb-19 23:27N 31°57' W 080°30'0 0.0
2018-Feb-19 22:57N 31°57' W 080°30'0 0.0
2018-Feb-19 22:27N 31°57' W 080°30'0 0.0
2018-Feb-19 21:45N 31°57' W 080°30'0 0.0
2018-Feb-19 17:57N 31°57' W 080°30'0 0.0
2018-Feb-19 01:21N 31°57' W 080°30'0 0.0
2018-Feb-19 00:57N 31°57' W 080°30'0 0.0
2018-Feb-19 00:27N 31°57' W 080°30'0 0.0
2018-Feb-18 23:51N 31°57' W 080°30'0 0.0
2018-Feb-18 23:27N 31°57' W 080°30'0 0.1
2018-Feb-18 22:57N 31°57' W 080°30'2 4.7
2018-Feb-18 22:30N 31°56' W 080°28'10 9.9
2018-Feb-18 21:28N 31°56' W 080°16'6 9.7
2018-Feb-18 20:51N 31°57' W 080°09'911.1
2018-Feb-18 20:00N 31°59' W 079°58'55010.9
2018-Feb-16 17:28N 39°42' W 073°52'1016.6
2018-Feb-16 16:52N 39°52' W 073°51'1016.4
2018-Feb-16 16:13N 40°02' W 073°50'315.5
2018-Feb-16 16:00N 40°06' W 073°50'710.3
2018-Feb-16 15:23N 40°12' W 073°49'7 9.9
2018-Feb-16 14:40N 40°19' W 073°49'2 9.4
2018-Feb-16 14:29N 40°21' W 073°49'5 9.4
2018-Feb-16 13:58N 40°26' W 073°49'4 7.7
2018-Feb-16 13:29N 40°28' W 073°53'613.3
2018-Feb-16 13:00N 40°31' W 074°00'714.6
2018-Feb-16 12:31N 40°38' W 074°03'3 6.1
2018-Feb-16 12:01N 40°39' W 074°07'1 2.8
2018-Feb-16 11:30N 40°40' W 074°09'1 2.5
2018-Feb-16 11:00N 40°41' W 074°09'0 0.6
2018-Feb-16 10:29N 40°41' W 074°09'0 0.0
2018-Feb-16 09:55N 40°41' W 074°09'0 0.0
2018-Feb-16 09:28N 40°41' W 074°09'0 0.0
2018-Feb-16 08:58N 40°41' W 074°09'0 0.0
2018-Feb-16 08:28N 40°41' W 074°09'0 0.0
2018-Feb-16 07:58N 40°41' W 074°09'0 0.0
2018-Feb-16 07:28N 40°41' W 074°09'0 0.0
2018-Feb-16 06:58N 40°41' W 074°09'0 0.0
2018-Feb-16 06:28N 40°41' W 074°09'0 0.0
2018-Feb-16 05:58N 40°41' W 074°09'0 0.0
2018-Feb-16 05:28N 40°41' W 074°09'0 0.0
2018-Feb-16 04:52N 40°41' W 074°09'0 0.0
2018-Feb-16 04:28N 40°41' W 074°09'0 0.0
2018-Feb-16 03:58N 40°41' W 074°09'0 0.0
2018-Feb-16 03:28N 40°41' W 074°09'0 0.0
2018-Feb-16 02:58N 40°41' W 074°09'0 0.0
2018-Feb-16 02:25N 40°41' W 074°09'0 0.0
2018-Feb-16 01:58N 40°41' W 074°09'0 0.0
2018-Feb-16 01:28N 40°41' W 074°09'0 0.0
2018-Feb-16 00:58N 40°41' W 074°09'0 0.0
2018-Feb-16 00:28N 40°41' W 074°09'0 0.0
2018-Feb-15 23:58N 40°41' W 074°09'0 0.0
2018-Feb-15 23:28N 40°41' W 074°09'0 0.0
2018-Feb-15 22:58N 40°41' W 074°09'0 0.0
2018-Feb-15 22:28N 40°41' W 074°09'0 0.0
2018-Feb-15 21:52N 40°41' W 074°09'0 0.0
2018-Feb-15 21:28N 40°41' W 074°09'0 0.0
2018-Feb-15 20:58N 40°41' W 074°09'0 0.0
2018-Feb-15 20:28N 40°41' W 074°09'0 0.0
2018-Feb-15 19:58N 40°41' W 074°09'0 0.0
2018-Feb-15 19:25N 40°41' W 074°09'0 0.0
2018-Feb-15 18:58N 40°41' W 074°09'0 0.0
2018-Feb-15 18:28N 40°41' W 074°09'0 0.0
2018-Feb-15 17:58N 40°41' W 074°09'0 0.0
2018-Feb-15 17:28N 40°41' W 074°09'0 0.0
2018-Feb-15 16:58N 40°41' W 074°09'0 0.0
2018-Feb-15 16:28N 40°41' W 074°09'0 0.0
2018-Feb-15 15:58N 40°41' W 074°09'0 0.0
2018-Feb-15 15:28N 40°41' W 074°09'0 0.0
2018-Feb-15 14:58N 40°41' W 074°09'0 0.0
2018-Feb-15 14:28N 40°41' W 074°09'0 0.0
2018-Feb-15 13:58N 40°41' W 074°09'0 0.0
2018-Feb-15 13:25N 40°41' W 074°09'0 0.0
2018-Feb-15 12:58N 40°41' W 074°09'0 0.0
2018-Feb-15 12:25N 40°41' W 074°09'0 0.0
2018-Feb-15 11:58N 40°41' W 074°09'0 0.0
2018-Feb-15 11:28N 40°41' W 074°09'0 0.0
2018-Feb-15 10:55N 40°41' W 074°09'0 0.0
2018-Feb-15 10:28N 40°41' W 074°09'0 0.0
2018-Feb-15 09:55N 40°41' W 074°09'0 0.0
2018-Feb-15 09:25N 40°41' W 074°09'0 0.0
2018-Feb-15 08:52N 40°41' W 074°09'0 0.0
2018-Feb-15 08:28N 40°41' W 074°09'0 0.0
2018-Feb-15 07:58N 40°41' W 074°09'0 0.0
2018-Feb-15 06:58N 40°41' W 074°09'0 0.0
2018-Feb-15 06:25N 40°41' W 074°09'0 0.0
2018-Feb-15 05:58N 40°41' W 074°09'0 0.0
2018-Feb-15 05:28N 40°41' W 074°09'0 0.0
2018-Feb-15 04:58N 40°41' W 074°09'0 0.0
2018-Feb-15 04:28N 40°41' W 074°09'0 0.0
2018-Feb-15 03:58N 40°41' W 074°09'0 0.0
2018-Feb-15 03:28N 40°41' W 074°09'0 0.0
2018-Feb-15 02:58N 40°41' W 074°09'0 0.0
2018-Feb-15 02:28N 40°41' W 074°09'0 0.0
2018-Feb-15 01:58N 40°41' W 074°09'0 0.0
2018-Feb-15 01:28N 40°41' W 074°09'0 0.0
2018-Feb-15 00:58N 40°41' W 074°09'0 0.0
2018-Feb-15 00:28N 40°41' W 074°09'0 0.0
2018-Feb-14 23:58N 40°41' W 074°09'0 0.0
2018-Feb-14 23:28N 40°41' W 074°09'0 0.0
2018-Feb-14 22:58N 40°41' W 074°09'0 0.0
2018-Feb-14 22:28N 40°41' W 074°09'0 0.0
2018-Feb-14 21:58N 40°41' W 074°09'0 0.0
2018-Feb-14 21:25N 40°41' W 074°09'0 0.0
2018-Feb-14 20:58N 40°41' W 074°09'0 0.0
2018-Feb-14 20:30N 40°41' W 074°09'1 1.7
2018-Feb-14 20:00N 40°40' W 074°08'2 3.7
2018-Feb-14 19:30N 40°39' W 074°08'3 6.7
2018-Feb-14 19:00N 40°39' W 074°04'5 9.1
2018-Feb-14 18:30N 40°34' W 074°02'713.0
2018-Feb-14 18:01N 40°30' W 073°56'5 9.4
2018-Feb-14 17:30N 40°28' W 073°50'3 5.9
2018-Feb-14 17:00N 40°28' W 073°46'1 2.7
2018-Feb-14 16:28N 40°29' W 073°46'0 0.1
2018-Feb-14 15:58N 40°29' W 073°46'0 0.0
2018-Feb-14 15:28N 40°29' W 073°46'0 0.0
2018-Feb-14 15:00N 40°29' W 073°46'0 0.1
2018-Feb-14 14:30N 40°29' W 073°46'0 0.8
2018-Feb-14 14:00N 40°29' W 073°45'5 9.4
2018-Feb-14 13:29N 40°25' W 073°43'5 9.8
2018-Feb-14 12:58N 40°21' W 073°38'  
Track history (hours):
 
Tides and Currents Weather Stations Pressure Air Temp Water Temp Dewpoint Dewpoint Depression Visibility Wind Speed Wind Dir Waves Ship Positions

MSC Candice

Last reported at 2018-Feb-21 21:17 UTC. Time now 2018-Feb-26 01:27 UTC.
Position N 31°52' W 080°34'.

Length 337 m; draft 12.1 m.

Type: Ship (hazmat cat A). MMSI: 352871000.

Date/timePositionNaut miles runAvg speedWind from/ knotsBaromVisibWave heightAir tempDewpointWater temp
2018-Feb-21 21:17N 31°52' W 080°34'3 9.5
2018-Feb-21 21:00N 31°54' W 080°36'5 9.7
2018-Feb-21 20:30N 31°57' W 080°40'5 9.6
2018-Feb-21 20:00N 31°59' W 080°46'713.5
2018-Feb-21 19:29N 32°02' W 080°53'611.8
2018-Feb-21 19:00N 32°05' W 080°59'4 8.0
2018-Feb-21 18:30N 32°05' W 081°04'2 3.6
2018-Feb-21 18:00N 32°05' W 081°06'2 3.6
2018-Feb-21 17:30N 32°06' W 081°07'2 3.8
2018-Feb-21 17:00N 32°08' W 081°08'1 1.1
2018-Feb-21 16:29N 32°08' W 081°08'0 0.0
2018-Feb-21 15:59N 32°08' W 081°08'0 0.0
2018-Feb-21 15:29N 32°08' W 081°08'0 0.0
2018-Feb-21 14:59N 32°08' W 081°08'0 0.0
2018-Feb-21 14:29N 32°08' W 081°08'0 0.0
2018-Feb-21 13:41N 32°08' W 081°08'0 0.0
2018-Feb-21 13:29N 32°08' W 081°08'0 0.0
2018-Feb-21 12:59N 32°08' W 081°08'0 0.0
2018-Feb-21 12:23N 32°08' W 081°08'0 0.0
2018-Feb-21 11:59N 32°08' W 081°08'0 0.0
2018-Feb-21 11:17N 32°08' W 081°08'0 0.0
2018-Feb-21 10:53N 32°08' W 081°08'0 0.0
2018-Feb-21 10:17N 32°08' W 081°08'0 0.0
2018-Feb-21 09:59N 32°08' W 081°08'0 0.0
2018-Feb-21 09:29N 32°08' W 081°08'0 0.0
2018-Feb-21 08:59N 32°08' W 081°08'0 0.0
2018-Feb-21 08:29N 32°08' W 081°08'0 0.0
2018-Feb-21 07:59N 32°08' W 081°08'0 0.0
2018-Feb-21 07:29N 32°08' W 081°08'0 0.0
2018-Feb-21 06:59N 32°08' W 081°08'0 0.0
2018-Feb-21 06:29N 32°08' W 081°08'0 0.0
2018-Feb-21 05:58N 32°08' W 081°08'0 0.0
2018-Feb-21 05:17N 32°08' W 081°08'0 0.0
2018-Feb-21 04:52N 32°08' W 081°08'0 0.0
2018-Feb-21 04:28N 32°08' W 081°08'0 0.0
2018-Feb-21 03:59N 32°08' W 081°08'0 0.0
2018-Feb-21 03:05N 32°08' W 081°08'0 0.0
2018-Feb-21 02:53N 32°08' W 081°08'0 0.0
2018-Feb-21 02:29N 32°08' W 081°08'0 0.0
2018-Feb-21 01:59N 32°08' W 081°08'0 0.0
2018-Feb-21 01:17N 32°08' W 081°08'0 0.0
2018-Feb-21 00:59N 32°08' W 081°08'0 0.0
2018-Feb-21 00:29N 32°08' W 081°08'0 0.0
2018-Feb-20 23:34N 32°08' W 081°08'0 0.0
2018-Feb-20 23:30N 32°08' W 081°08'0 0.8
2018-Feb-20 23:00N 32°07' W 081°08'2 4.6
2018-Feb-20 22:30N 32°05' W 081°06'2 5.0
2018-Feb-20 22:00N 32°05' W 081°03'3 6.8
2018-Feb-20 21:30N 32°05' W 080°59'5 9.3
2018-Feb-20 21:00N 32°02' W 080°55'5 9.0
2018-Feb-20 20:30N 32°02' W 080°50'713.7
2018-Feb-20 20:00N 31°58' W 080°43'4 8.8
2018-Feb-20 19:30N 31°56' W 080°38'3 6.4
2018-Feb-20 19:00N 31°56' W 080°35'4 7.5
2018-Feb-20 18:30N 31°57' W 080°30'0 0.2
2018-Feb-20 17:39N 31°58' W 080°30'0 0.1
2018-Feb-20 17:27N 31°58' W 080°30'0 0.1
2018-Feb-20 16:51N 31°58' W 080°30'0 0.0
2018-Feb-20 16:21N 31°58' W 080°30'0 0.0
2018-Feb-20 15:51N 31°58' W 080°30'0 0.0
2018-Feb-20 15:21N 31°58' W 080°30'0 0.0
2018-Feb-20 14:57N 31°58' W 080°30'0 0.0
2018-Feb-20 14:27N 31°58' W 080°30'0 0.0
2018-Feb-20 10:57N 31°57' W 080°30'0 0.0
2018-Feb-20 10:27N 31°57' W 080°30'0 0.1
2018-Feb-20 08:51N 31°58' W 080°30'0 0.2
2018-Feb-20 08:27N 31°58' W 080°30'0 0.1
2018-Feb-20 07:57N 31°58' W 080°30'0 0.0
2018-Feb-20 07:27N 31°57' W 080°30'0 0.0
2018-Feb-20 06:57N 31°58' W 080°30'0 0.1
2018-Feb-20 06:27N 31°58' W 080°30'0 0.1
2018-Feb-20 05:45N 31°58' W 080°30'0 0.1
2018-Feb-20 04:09N 31°58' W 080°30'0 0.1
2018-Feb-20 03:57N 31°58' W 080°30'0 0.0
2018-Feb-20 03:21N 31°58' W 080°30'0 0.0
2018-Feb-20 02:57N 31°58' W 080°30'0 0.0
2018-Feb-20 02:27N 31°58' W 080°30'0 0.0
2018-Feb-20 01:57N 31°58' W 080°30'0 0.0
2018-Feb-20 00:21N 31°57' W 080°30'0 0.0
2018-Feb-19 23:57N 31°57' W 080°30'0 0.0
2018-Feb-19 23:27N 31°57' W 080°30'0 0.0
2018-Feb-19 22:57N 31°57' W 080°30'0 0.0
2018-Feb-19 22:27N 31°57' W 080°30'0 0.0
2018-Feb-19 21:45N 31°57' W 080°30'0 0.0
2018-Feb-19 17:57N 31°57' W 080°30'0 0.0
2018-Feb-19 01:21N 31°57' W 080°30'0 0.0
2018-Feb-19 00:57N 31°57' W 080°30'0 0.0
2018-Feb-19 00:27N 31°57' W 080°30'0 0.0
2018-Feb-18 23:51N 31°57' W 080°30'0 0.0
2018-Feb-18 23:27N 31°57' W 080°30'0 0.1
2018-Feb-18 22:57N 31°57' W 080°30'2 4.7
2018-Feb-18 22:30N 31°56' W 080°28'10 9.9
2018-Feb-18 21:28N 31°56' W 080°16'6 9.7
2018-Feb-18 20:51N 31°57' W 080°09'911.1
2018-Feb-18 20:00N 31°59' W 079°58'55010.9
2018-Feb-16 17:28N 39°42' W 073°52'1016.6
2018-Feb-16 16:52N 39°52' W 073°51'1016.4
2018-Feb-16 16:13N 40°02' W 073°50'315.5
2018-Feb-16 16:00N 40°06' W 073°50'710.3
2018-Feb-16 15:23N 40°12' W 073°49'7 9.9
2018-Feb-16 14:40N 40°19' W 073°49'2 9.4
2018-Feb-16 14:29N 40°21' W 073°49'5 9.4
2018-Feb-16 13:58N 40°26' W 073°49'4 7.7
2018-Feb-16 13:29N 40°28' W 073°53'613.3
2018-Feb-16 13:00N 40°31' W 074°00'714.6
2018-Feb-16 12:31N 40°38' W 074°03'3 6.1
2018-Feb-16 12:01N 40°39' W 074°07'1 2.8
2018-Feb-16 11:30N 40°40' W 074°09'1 2.5
2018-Feb-16 11:00N 40°41' W 074°09'0 0.6
2018-Feb-16 10:29N 40°41' W 074°09'0 0.0
2018-Feb-16 09:55N 40°41' W 074°09'0 0.0
2018-Feb-16 09:28N 40°41' W 074°09'0 0.0
2018-Feb-16 08:58N 40°41' W 074°09'0 0.0
2018-Feb-16 08:28N 40°41' W 074°09'0 0.0
2018-Feb-16 07:58N 40°41' W 074°09'0 0.0
2018-Feb-16 07:28N 40°41' W 074°09'0 0.0
2018-Feb-16 06:58N 40°41' W 074°09'0 0.0
2018-Feb-16 06:28N 40°41' W 074°09'0 0.0
2018-Feb-16 05:58N 40°41' W 074°09'0 0.0
2018-Feb-16 05:28N 40°41' W 074°09'0 0.0
2018-Feb-16 04:52N 40°41' W 074°09'0 0.0
2018-Feb-16 04:28N 40°41' W 074°09'0 0.0
2018-Feb-16 03:58N 40°41' W 074°09'0 0.0
2018-Feb-16 03:28N 40°41' W 074°09'0 0.0
2018-Feb-16 02:58N 40°41' W 074°09'0 0.0
2018-Feb-16 02:25N 40°41' W 074°09'0 0.0
2018-Feb-16 01:58N 40°41' W 074°09'0 0.0
2018-Feb-16 01:28N 40°41' W 074°09'0 0.0
2018-Feb-16 00:58N 40°41' W 074°09'0 0.0
2018-Feb-16 00:28N 40°41' W 074°09'0 0.0
2018-Feb-15 23:58N 40°41' W 074°09'0 0.0
2018-Feb-15 23:28N 40°41' W 074°09'0 0.0
2018-Feb-15 22:58N 40°41' W 074°09'0 0.0
2018-Feb-15 22:28N 40°41' W 074°09'0 0.0
2018-Feb-15 21:52N 40°41' W 074°09'0 0.0
2018-Feb-15 21:28N 40°41' W 074°09'0 0.0
2018-Feb-15 20:58N 40°41' W 074°09'0 0.0
2018-Feb-15 20:28N 40°41' W 074°09'0 0.0
2018-Feb-15 19:58N 40°41' W 074°09'0 0.0
2018-Feb-15 19:25N 40°41' W 074°09'0 0.0
2018-Feb-15 18:58N 40°41' W 074°09'0 0.0
2018-Feb-15 18:28N 40°41' W 074°09'0 0.0
2018-Feb-15 17:58N 40°41' W 074°09'0 0.0
2018-Feb-15 17:28N 40°41' W 074°09'0 0.0
2018-Feb-15 16:58N 40°41' W 074°09'0 0.0
2018-Feb-15 16:28N 40°41' W 074°09'0 0.0
2018-Feb-15 15:58N 40°41' W 074°09'0 0.0
2018-Feb-15 15:28N 40°41' W 074°09'0 0.0
2018-Feb-15 14:58N 40°41' W 074°09'0 0.0
2018-Feb-15 14:28N 40°41' W 074°09'0 0.0
2018-Feb-15 13:58N 40°41' W 074°09'0 0.0
2018-Feb-15 13:25N 40°41' W 074°09'0 0.0
2018-Feb-15 12:58N 40°41' W 074°09'0 0.0
2018-Feb-15 12:25N 40°41' W 074°09'0 0.0
2018-Feb-15 11:58N 40°41' W 074°09'0 0.0
2018-Feb-15 11:28N 40°41' W 074°09'0 0.0
2018-Feb-15 10:55N 40°41' W 074°09'0 0.0
2018-Feb-15 10:28N 40°41' W 074°09'0 0.0
2018-Feb-15 09:55N 40°41' W 074°09'0 0.0
2018-Feb-15 09:25N 40°41' W 074°09'0 0.0
2018-Feb-15 08:52N 40°41' W 074°09'0 0.0
2018-Feb-15 08:28N 40°41' W 074°09'0 0.0
2018-Feb-15 07:58N 40°41' W 074°09'0 0.0
2018-Feb-15 06:58N 40°41' W 074°09'0 0.0
2018-Feb-15 06:25N 40°41' W 074°09'0 0.0
2018-Feb-15 05:58N 40°41' W 074°09'0 0.0
2018-Feb-15 05:28N 40°41' W 074°09'0 0.0
2018-Feb-15 04:58N 40°41' W 074°09'0 0.0
2018-Feb-15 04:28N 40°41' W 074°09'0 0.0
2018-Feb-15 03:58N 40°41' W 074°09'0 0.0
2018-Feb-15 03:28N 40°41' W 074°09'0 0.0
2018-Feb-15 02:58N 40°41' W 074°09'0 0.0
2018-Feb-15 02:28N 40°41' W 074°09'0 0.0
2018-Feb-15 01:58N 40°41' W 074°09'0 0.0
2018-Feb-15 01:28N 40°41' W 074°09'0 0.0
2018-Feb-15 00:58N 40°41' W 074°09'0 0.0
2018-Feb-15 00:28N 40°41' W 074°09'0 0.0
2018-Feb-14 23:58N 40°41' W 074°09'0 0.0
2018-Feb-14 23:28N 40°41' W 074°09'0 0.0
2018-Feb-14 22:58N 40°41' W 074°09'0 0.0
2018-Feb-14 22:28N 40°41' W 074°09'0 0.0
2018-Feb-14 21:58N 40°41' W 074°09'0 0.0
2018-Feb-14 21:25N 40°41' W 074°09'0 0.0
2018-Feb-14 20:58N 40°41' W 074°09'0 0.0
2018-Feb-14 20:30N 40°41' W 074°09'1 1.7
2018-Feb-14 20:00N 40°40' W 074°08'2 3.7
2018-Feb-14 19:30N 40°39' W 074°08'3 6.7
2018-Feb-14 19:00N 40°39' W 074°04'5 9.1
2018-Feb-14 18:30N 40°34' W 074°02'713.0
2018-Feb-14 18:01N 40°30' W 073°56'5 9.4
2018-Feb-14 17:30N 40°28' W 073°50'3 5.9
2018-Feb-14 17:00N 40°28' W 073°46'1 2.7
2018-Feb-14 16:28N 40°29' W 073°46'0 0.1
2018-Feb-14 15:58N 40°29' W 073°46'0 0.0
2018-Feb-14 15:28N 40°29' W 073°46'0 0.0
2018-Feb-14 15:00N 40°29' W 073°46'0 0.1
2018-Feb-14 14:30N 40°29' W 073°46'0 0.8
2018-Feb-14 14:00N 40°29' W 073°45'5 9.4
2018-Feb-14 13:29N 40°25' W 073°43'5 9.8
2018-Feb-14 12:58N 40°21' W 073°38'  

Dump ship's entire track history